シカゴ/オヘア の空港の天気 - METARとTAF

シカゴ・オヘア国際空港 ( KORD / ORD ) - アメリカ イリノイ州シカゴ
飛行場実況気象(Metar)
観測時間10/16 02:51 CDT (10/16 07:51 UTC)
風向・風速西 6m/s 瞬間風速11m/s
視程10km以上
天気現象
全天を覆う雲 雲底高度 1100m
気温8.3℃
湿度63%
気圧1008.9hPa
METARKORD 160751Z 27012G22KT 10SM OVC036 08/02 A2979 RMK AO2 SLP089 T00830017 $
過去の天気等 Google飛行場航空写真 Wunderground天気予報

過去48時間のMETAR

飛行場予報(TAF)
発表時間: 10/16 00:34 CDT (10/16 05:34 UTC)
予報対象時間: 16日1時 CDT ~ 17日7時 CDT
風向・風速西北西 8m/s 瞬間風速 14m/s
視程10km以上
全天を覆う雲 雲底高度 1070m
16日3時 CDT から
風向・風速北西 10m/s 瞬間風速 15m/s
視程10km以上
全天の8割程度の雲 雲底高度 760m
全天を覆う雲 雲底高度 1070m
16日13時 CDT から
風向・風速北西 8m/s 瞬間風速 13m/s
視程10km以上
全天の8割程度の雲 雲底高度 1070m
16日19時 CDT から
風向・風速北西 5m/s
視程10km以上
全天の8割程度の雲 雲底高度 1220m
全天の8割程度の雲 雲底高度 3050m
KORD 160534Z 1606/1712 29016G27KT P6SM OVC035
FM160800 31019G30KT P6SM BKN025 OVC035
FM161800 32016G25KT P6SM BKN035
FM170000 31010KT P6SM BKN040 BKN100